sensor_id;sensor_type;location;lat;lon;timestamp;temperature;humidity
41720;DHT22;27405;53.316;-6.294;2023-02-22T00:01:16;9.10;99.90
41720;DHT22;27405;53.316;-6.294;2023-02-22T00:04:00;9.10;99.90
41720;DHT22;27405;53.316;-6.294;2023-02-22T00:06:28;9.10;99.90
41720;DHT22;27405;53.316;-6.294;2023-02-22T00:08:55;9.10;99.90
41720;DHT22;27405;53.316;-6.294;2023-02-22T00:11:21;9.10;99.90
41720;DHT22;27405;53.316;-6.294;2023-02-22T00:13:47;9.10;99.90
41720;DHT22;27405;53.316;-6.294;2023-02-22T00:16:18;9.10;99.90
41720;DHT22;27405;53.316;-6.294;2023-02-22T00:18:44;9.10;99.90
41720;DHT22;27405;53.316;-6.294;2023-02-22T00:21:12;9.10;99.90
41720;DHT22;27405;53.316;-6.294;2023-02-22T00:23:40;9.10;99.90
41720;DHT22;27405;53.316;-6.294;2023-02-22T00:26:08;9.00;99.90
41720;DHT22;27405;53.316;-6.294;2023-02-22T00:28:35;8.90;99.90
41720;DHT22;27405;53.316;-6.294;2023-02-22T00:31:02;8.80;99.90
41720;DHT22;27405;53.316;-6.294;2023-02-22T00:33:29;8.70;99.90
41720;DHT22;27405;53.316;-6.294;2023-02-22T00:35:55;8.60;99.90
41720;DHT22;27405;53.316;-6.294;2023-02-22T00:38:21;8.50;99.90
41720;DHT22;27405;53.316;-6.294;2023-02-22T00:40:47;8.30;99.90
41720;DHT22;27405;53.316;-6.294;2023-02-22T00:43:13;8.20;99.90
41720;DHT22;27405;53.316;-6.294;2023-02-22T00:45:39;8.10;99.90
41720;DHT22;27405;53.316;-6.294;2023-02-22T00:48:05;8.10;99.90
41720;DHT22;27405;53.316;-6.294;2023-02-22T00:50:32;8.00;99.90
41720;DHT22;27405;53.316;-6.294;2023-02-22T00:52:59;7.90;99.90
41720;DHT22;27405;53.316;-6.294;2023-02-22T00:55:30;7.90;99.90
41720;DHT22;27405;53.316;-6.294;2023-02-22T00:57:58;7.90;99.90
41720;DHT22;27405;53.316;-6.294;2023-02-22T01:00:29;7.80;99.90
41720;DHT22;27405;53.316;-6.294;2023-02-22T01:02:56;7.80;99.90
41720;DHT22;27405;53.316;-6.294;2023-02-22T01:05:24;7.80;99.90
41720;DHT22;27405;53.316;-6.294;2023-02-22T01:07:50;7.70;99.90
41720;DHT22;27405;53.316;-6.294;2023-02-22T01:10:18;7.70;99.90
41720;DHT22;27405;53.316;-6.294;2023-02-22T01:12:48;7.70;99.90
41720;DHT22;27405;53.316;-6.294;2023-02-22T01:15:18;7.60;99.90
41720;DHT22;27405;53.316;-6.294;2023-02-22T01:17:47;7.50;99.90
41720;DHT22;27405;53.316;-6.294;2023-02-22T01:20:14;7.50;99.90
41720;DHT22;27405;53.316;-6.294;2023-02-22T01:22:42;7.50;99.90
41720;DHT22;27405;53.316;-6.294;2023-02-22T01:25:10;7.40;99.90
41720;DHT22;27405;53.316;-6.294;2023-02-22T01:27:36;7.30;99.90
41720;DHT22;27405;53.316;-6.294;2023-02-22T01:30:05;7.30;99.90
41720;DHT22;27405;53.316;-6.294;2023-02-22T01:32:37;7.30;99.90
41720;DHT22;27405;53.316;-6.294;2023-02-22T01:35:06;7.30;99.90
41720;DHT22;27405;53.316;-6.294;2023-02-22T01:37:33;7.30;99.90
41720;DHT22;27405;53.316;-6.294;2023-02-22T01:40:00;7.30;99.90
41720;DHT22;27405;53.316;-6.294;2023-02-22T01:42:26;7.20;99.90
41720;DHT22;27405;53.316;-6.294;2023-02-22T01:45:36;7.20;99.90
41720;DHT22;27405;53.316;-6.294;2023-02-22T01:50:33;7.20;99.90
41720;DHT22;27405;53.316;-6.294;2023-02-22T01:53:00;7.20;99.90
41720;DHT22;27405;53.316;-6.294;2023-02-22T01:55:26;7.20;99.90
41720;DHT22;27405;53.316;-6.294;2023-02-22T01:57:53;7.20;99.90
41720;DHT22;27405;53.316;-6.294;2023-02-22T02:00:19;7.20;99.90
41720;DHT22;27405;53.316;-6.294;2023-02-22T02:02:52;7.20;99.90
41720;DHT22;27405;53.316;-6.294;2023-02-22T02:05:26;7.20;99.90
41720;DHT22;27405;53.316;-6.294;2023-02-22T02:07:52;7.20;99.90
41720;DHT22;27405;53.316;-6.294;2023-02-22T02:10:19;7.20;99.90
41720;DHT22;27405;53.316;-6.294;2023-02-22T02:12:47;7.30;99.90
41720;DHT22;27405;53.316;-6.294;2023-02-22T02:15:22;7.30;99.90
41720;DHT22;27405;53.316;-6.294;2023-02-22T02:17:50;7.30;99.90
41720;DHT22;27405;53.316;-6.294;2023-02-22T02:20:41;7.30;99.90
41720;DHT22;27405;53.316;-6.294;2023-02-22T02:34:39;7.20;99.90
41720;DHT22;27405;53.316;-6.294;2023-02-22T02:37:15;7.20;99.90
41720;DHT22;27405;53.316;-6.294;2023-02-22T02:40:01;7.30;99.90
41720;DHT22;27405;53.316;-6.294;2023-02-22T02:42:37;7.30;99.90
41720;DHT22;27405;53.316;-6.294;2023-02-22T02:45:32;7.30;99.90
41720;DHT22;27405;53.316;-6.294;2023-02-22T02:48:02;7.30;99.90
41720;DHT22;27405;53.316;-6.294;2023-02-22T02:50:50;7.40;99.90
41720;DHT22;27405;53.316;-6.294;2023-02-22T02:53:20;7.30;99.90
41720;DHT22;27405;53.316;-6.294;2023-02-22T02:55:47;7.30;99.90
41720;DHT22;27405;53.316;-6.294;2023-02-22T02:58:19;7.30;99.90
41720;DHT22;27405;53.316;-6.294;2023-02-22T03:00:46;7.20;99.90
41720;DHT22;27405;53.316;-6.294;2023-02-22T03:03:44;7.20;99.90
41720;DHT22;27405;53.316;-6.294;2023-02-22T03:06:37;7.20;99.90
41720;DHT22;27405;53.316;-6.294;2023-02-22T03:15:32;7.30;99.90
41720;DHT22;27405;53.316;-6.294;2023-02-22T03:18:12;7.30;99.90
41720;DHT22;27405;53.316;-6.294;2023-02-22T03:26:24;7.20;99.90
41720;DHT22;27405;53.316;-6.294;2023-02-22T03:28:53;7.20;99.90
41720;DHT22;27405;53.316;-6.294;2023-02-22T03:31:26;7.20;99.90
41720;DHT22;27405;53.316;-6.294;2023-02-22T03:33:58;7.20;99.90
41720;DHT22;27405;53.316;-6.294;2023-02-22T03:36:35;7.20;99.90
41720;DHT22;27405;53.316;-6.294;2023-02-22T03:39:06;7.20;99.90
41720;DHT22;27405;53.316;-6.294;2023-02-22T03:41:35;7.20;99.90
41720;DHT22;27405;53.316;-6.294;2023-02-22T03:44:08;7.20;99.90
41720;DHT22;27405;53.316;-6.294;2023-02-22T03:46:37;7.20;99.90
41720;DHT22;27405;53.316;-6.294;2023-02-22T03:51:41;7.20;99.90
41720;DHT22;27405;53.316;-6.294;2023-02-22T03:54:07;7.20;99.90
41720;DHT22;27405;53.316;-6.294;2023-02-22T03:56:37;7.10;99.90
41720;DHT22;27405;53.316;-6.294;2023-02-22T03:59:06;7.20;99.90
41720;DHT22;27405;53.316;-6.294;2023-02-22T04:01:33;7.20;99.90
41720;DHT22;27405;53.316;-6.294;2023-02-22T04:03:59;7.10;99.90
41720;DHT22;27405;53.316;-6.294;2023-02-22T04:06:25;7.10;99.90
41720;DHT22;27405;53.316;-6.294;2023-02-22T04:08:51;7.10;99.90
41720;DHT22;27405;53.316;-6.294;2023-02-22T04:11:17;7.10;99.90
41720;DHT22;27405;53.316;-6.294;2023-02-22T04:13:42;7.10;99.90
41720;DHT22;27405;53.316;-6.294;2023-02-22T04:16:08;7.10;99.90
41720;DHT22;27405;53.316;-6.294;2023-02-22T04:18:34;7.10;99.90
41720;DHT22;27405;53.316;-6.294;2023-02-22T04:20:59;7.10;99.90
41720;DHT22;27405;53.316;-6.294;2023-02-22T04:23:25;7.10;99.90
41720;DHT22;27405;53.316;-6.294;2023-02-22T04:25:51;7.00;99.90
41720;DHT22;27405;53.316;-6.294;2023-02-22T04:28:17;7.00;99.90
41720;DHT22;27405;53.316;-6.294;2023-02-22T04:30:43;7.00;99.90
41720;DHT22;27405;53.316;-6.294;2023-02-22T04:33:09;7.00;99.90
41720;DHT22;27405;53.316;-6.294;2023-02-22T04:35:35;7.00;99.90
41720;DHT22;27405;53.316;-6.294;2023-02-22T04:38:00;7.00;99.90
41720;DHT22;27405;53.316;-6.294;2023-02-22T04:40:27;7.00;99.90
41720;DHT22;27405;53.316;-6.294;2023-02-22T04:42:52;7.00;99.90
41720;DHT22;27405;53.316;-6.294;2023-02-22T04:45:18;7.00;99.90
41720;DHT22;27405;53.316;-6.294;2023-02-22T04:47:44;6.90;99.90
41720;DHT22;27405;53.316;-6.294;2023-02-22T04:50:11;6.90;99.90
41720;DHT22;27405;53.316;-6.294;2023-02-22T04:52:37;6.90;99.90
41720;DHT22;27405;53.316;-6.294;2023-02-22T04:55:04;6.80;99.90
41720;DHT22;27405;53.316;-6.294;2023-02-22T04:57:30;6.90;99.90
41720;DHT22;27405;53.316;-6.294;2023-02-22T04:59:55;6.90;99.90
41720;DHT22;27405;53.316;-6.294;2023-02-22T05:02:21;6.90;99.90
41720;DHT22;27405;53.316;-6.294;2023-02-22T05:04:47;6.90;99.90
41720;DHT22;27405;53.316;-6.294;2023-02-22T05:07:12;7.00;99.90
41720;DHT22;27405;53.316;-6.294;2023-02-22T05:09:38;6.90;99.90
41720;DHT22;27405;53.316;-6.294;2023-02-22T05:12:04;7.00;99.90
41720;DHT22;27405;53.316;-6.294;2023-02-22T05:14:30;7.00;99.90
41720;DHT22;27405;53.316;-6.294;2023-02-22T05:16:56;7.00;99.90
41720;DHT22;27405;53.316;-6.294;2023-02-22T05:19:22;7.00;99.90
41720;DHT22;27405;53.316;-6.294;2023-02-22T05:21:48;6.90;99.90
41720;DHT22;27405;53.316;-6.294;2023-02-22T05:24:14;7.00;99.90
41720;DHT22;27405;53.316;-6.294;2023-02-22T05:26:41;7.00;99.90
41720;DHT22;27405;53.316;-6.294;2023-02-22T05:29:07;7.00;99.90
41720;DHT22;27405;53.316;-6.294;2023-02-22T05:31:32;7.00;99.90
41720;DHT22;27405;53.316;-6.294;2023-02-22T05:33:58;7.00;99.90
41720;DHT22;27405;53.316;-6.294;2023-02-22T05:36:24;6.90;99.90
41720;DHT22;27405;53.316;-6.294;2023-02-22T05:38:50;6.90;99.90
41720;DHT22;27405;53.316;-6.294;2023-02-22T05:41:15;6.80;99.90
41720;DHT22;27405;53.316;-6.294;2023-02-22T05:43:41;6.80;99.90
41720;DHT22;27405;53.316;-6.294;2023-02-22T05:46:07;6.80;99.90
41720;DHT22;27405;53.316;-6.294;2023-02-22T05:48:33;6.70;99.90
41720;DHT22;27405;53.316;-6.294;2023-02-22T05:50:58;6.70;99.90
41720;DHT22;27405;53.316;-6.294;2023-02-22T05:53:24;6.70;99.90
41720;DHT22;27405;53.316;-6.294;2023-02-22T05:55:50;6.70;99.90
41720;DHT22;27405;53.316;-6.294;2023-02-22T05:58:16;6.60;99.90
41720;DHT22;27405;53.316;-6.294;2023-02-22T06:00:42;6.60;99.90
41720;DHT22;27405;53.316;-6.294;2023-02-22T06:03:09;6.60;99.90
41720;DHT22;27405;53.316;-6.294;2023-02-22T06:05:35;6.60;99.90
41720;DHT22;27405;53.316;-6.294;2023-02-22T06:08:02;6.70;99.90
41720;DHT22;27405;53.316;-6.294;2023-02-22T06:10:29;6.60;99.90
41720;DHT22;27405;53.316;-6.294;2023-02-22T06:12:55;6.60;99.90
41720;DHT22;27405;53.316;-6.294;2023-02-22T06:15:23;6.60;99.90
41720;DHT22;27405;53.316;-6.294;2023-02-22T06:17:49;6.60;99.90
41720;DHT22;27405;53.316;-6.294;2023-02-22T06:20:18;6.60;99.90
41720;DHT22;27405;53.316;-6.294;2023-02-22T06:22:48;6.60;99.90
41720;DHT22;27405;53.316;-6.294;2023-02-22T06:25:17;6.60;99.90
41720;DHT22;27405;53.316;-6.294;2023-02-22T06:27:43;6.50;99.90
41720;DHT22;27405;53.316;-6.294;2023-02-22T06:30:11;6.50;99.90
41720;DHT22;27405;53.316;-6.294;2023-02-22T06:32:37;6.50;99.90
41720;DHT22;27405;53.316;-6.294;2023-02-22T06:35:03;6.40;99.90
41720;DHT22;27405;53.316;-6.294;2023-02-22T06:37:29;6.40;99.90
41720;DHT22;27405;53.316;-6.294;2023-02-22T06:39:55;6.40;99.90
41720;DHT22;27405;53.316;-6.294;2023-02-22T06:42:20;6.30;99.90
41720;DHT22;27405;53.316;-6.294;2023-02-22T06:44:46;6.40;99.90
41720;DHT22;27405;53.316;-6.294;2023-02-22T06:47:12;6.30;99.90
41720;DHT22;27405;53.316;-6.294;2023-02-22T06:49:38;6.20;99.90
41720;DHT22;27405;53.316;-6.294;2023-02-22T06:52:05;6.20;99.90
41720;DHT22;27405;53.316;-6.294;2023-02-22T06:54:31;6.20;99.90
41720;DHT22;27405;53.316;-6.294;2023-02-22T06:56:57;6.10;99.90
41720;DHT22;27405;53.316;-6.294;2023-02-22T06:59:23;6.00;99.90
41720;DHT22;27405;53.316;-6.294;2023-02-22T07:01:49;6.00;99.90
41720;DHT22;27405;53.316;-6.294;2023-02-22T07:04:15;6.00;99.90
41720;DHT22;27405;53.316;-6.294;2023-02-22T07:06:48;6.00;99.90
41720;DHT22;27405;53.316;-6.294;2023-02-22T07:09:15;6.00;99.90
41720;DHT22;27405;53.316;-6.294;2023-02-22T07:11:41;6.00;99.90
41720;DHT22;27405;53.316;-6.294;2023-02-22T07:14:08;5.90;99.90
41720;DHT22;27405;53.316;-6.294;2023-02-22T07:16:33;5.90;99.90
41720;DHT22;27405;53.316;-6.294;2023-02-22T07:18:59;5.90;99.90
41720;DHT22;27405;53.316;-6.294;2023-02-22T07:21:25;5.90;99.90
41720;DHT22;27405;53.316;-6.294;2023-02-22T07:23:53;5.90;99.90
41720;DHT22;27405;53.316;-6.294;2023-02-22T07:26:19;5.80;99.90
41720;DHT22;27405;53.316;-6.294;2023-02-22T07:28:46;5.80;99.90
41720;DHT22;27405;53.316;-6.294;2023-02-22T07:31:11;5.80;99.90
41720;DHT22;27405;53.316;-6.294;2023-02-22T07:33:37;5.70;99.90
41720;DHT22;27405;53.316;-6.294;2023-02-22T07:36:03;5.60;99.90
41720;DHT22;27405;53.316;-6.294;2023-02-22T07:38:30;5.60;99.90
41720;DHT22;27405;53.316;-6.294;2023-02-22T07:40:56;5.60;99.90
41720;DHT22;27405;53.316;-6.294;2023-02-22T07:43:24;5.60;99.90
41720;DHT22;27405;53.316;-6.294;2023-02-22T07:45:53;5.50;99.90
41720;DHT22;27405;53.316;-6.294;2023-02-22T07:48:21;5.50;99.90
41720;DHT22;27405;53.316;-6.294;2023-02-22T07:50:48;5.40;99.90
41720;DHT22;27405;53.316;-6.294;2023-02-22T07:53:28;5.40;99.90
41720;DHT22;27405;53.316;-6.294;2023-02-22T07:55:59;5.30;99.90
41720;DHT22;27405;53.316;-6.294;2023-02-22T07:58:27;5.30;99.90
41720;DHT22;27405;53.316;-6.294;2023-02-22T08:00:53;5.30;99.90
41720;DHT22;27405;53.316;-6.294;2023-02-22T08:03:21;5.30;99.90
41720;DHT22;27405;53.316;-6.294;2023-02-22T08:05:51;5.30;99.90
41720;DHT22;27405;53.316;-6.294;2023-02-22T08:08:17;5.30;99.90
41720;DHT22;27405;53.316;-6.294;2023-02-22T08:10:43;5.20;99.90
41720;DHT22;27405;53.316;-6.294;2023-02-22T08:13:09;5.30;99.90
41720;DHT22;27405;53.316;-6.294;2023-02-22T08:15:37;5.30;99.90
41720;DHT22;27405;53.316;-6.294;2023-02-22T08:18:08;5.30;99.90
41720;DHT22;27405;53.316;-6.294;2023-02-22T08:20:35;5.30;99.90
41720;DHT22;27405;53.316;-6.294;2023-02-22T08:23:02;5.30;99.90
41720;DHT22;27405;53.316;-6.294;2023-02-22T08:25:29;5.30;99.90
41720;DHT22;27405;53.316;-6.294;2023-02-22T08:28:00;5.40;99.90
41720;DHT22;27405;53.316;-6.294;2023-02-22T08:30:28;5.50;99.90
41720;DHT22;27405;53.316;-6.294;2023-02-22T08:32:54;5.50;99.90
41720;DHT22;27405;53.316;-6.294;2023-02-22T08:35:21;5.50;99.90
41720;DHT22;27405;53.316;-6.294;2023-02-22T08:37:49;5.50;99.90
41720;DHT22;27405;53.316;-6.294;2023-02-22T08:40:19;5.50;99.90
41720;DHT22;27405;53.316;-6.294;2023-02-22T08:42:46;5.50;99.90
41720;DHT22;27405;53.316;-6.294;2023-02-22T08:45:12;5.50;99.90
41720;DHT22;27405;53.316;-6.294;2023-02-22T08:47:38;5.40;99.90
41720;DHT22;27405;53.316;-6.294;2023-02-22T08:50:05;5.40;99.90
41720;DHT22;27405;53.316;-6.294;2023-02-22T08:52:31;5.30;99.90
41720;DHT22;27405;53.316;-6.294;2023-02-22T08:54:57;5.30;99.90
41720;DHT22;27405;53.316;-6.294;2023-02-22T08:57:22;5.30;99.90
41720;DHT22;27405;53.316;-6.294;2023-02-22T08:59:48;5.30;99.90
41720;DHT22;27405;53.316;-6.294;2023-02-22T09:02:16;5.30;99.90
41720;DHT22;27405;53.316;-6.294;2023-02-22T09:04:43;5.40;99.90
41720;DHT22;27405;53.316;-6.294;2023-02-22T09:07:09;5.40;99.90
41720;DHT22;27405;53.316;-6.294;2023-02-22T09:09:35;5.40;99.90
41720;DHT22;27405;53.316;-6.294;2023-02-22T09:12:01;5.30;99.90
41720;DHT22;27405;53.316;-6.294;2023-02-22T09:14:27;5.40;99.90
41720;DHT22;27405;53.316;-6.294;2023-02-22T09:16:53;5.40;99.90
41720;DHT22;27405;53.316;-6.294;2023-02-22T09:19:18;5.40;99.90
41720;DHT22;27405;53.316;-6.294;2023-02-22T09:21:44;5.50;99.90
41720;DHT22;27405;53.316;-6.294;2023-02-22T09:24:10;5.50;99.90
41720;DHT22;27405;53.316;-6.294;2023-02-22T09:26:36;5.50;99.90
41720;DHT22;27405;53.316;-6.294;2023-02-22T09:29:07;5.50;99.90
41720;DHT22;27405;53.316;-6.294;2023-02-22T09:31:40;5.60;99.90
41720;DHT22;27405;53.316;-6.294;2023-02-22T09:34:07;5.60;99.90
41720;DHT22;27405;53.316;-6.294;2023-02-22T09:36:45;5.60;99.90
41720;DHT22;27405;53.316;-6.294;2023-02-22T09:39:12;5.70;99.90
41720;DHT22;27405;53.316;-6.294;2023-02-22T09:47:01;5.80;99.90
41720;DHT22;27405;53.316;-6.294;2023-02-22T09:49:36;5.80;99.90
41720;DHT22;27405;53.316;-6.294;2023-02-22T09:52:10;5.80;99.90
41720;DHT22;27405;53.316;-6.294;2023-02-22T09:54:39;5.90;99.90
41720;DHT22;27405;53.316;-6.294;2023-02-22T09:57:12;5.90;99.90
41720;DHT22;27405;53.316;-6.294;2023-02-22T10:00:04;5.90;99.90
41720;DHT22;27405;53.316;-6.294;2023-02-22T10:05:28;6.00;99.90
41720;DHT22;27405;53.316;-6.294;2023-02-22T10:08:03;6.10;99.90
41720;DHT22;27405;53.316;-6.294;2023-02-22T10:10:35;6.10;99.90
41720;DHT22;27405;53.316;-6.294;2023-02-22T10:26:41;6.50;99.90
41720;DHT22;27405;53.316;-6.294;2023-02-22T10:31:56;6.50;99.90
41720;DHT22;27405;53.316;-6.294;2023-02-22T10:34:25;6.50;99.90
41720;DHT22;27405;53.316;-6.294;2023-02-22T10:37:09;6.50;99.90
41720;DHT22;27405;53.316;-6.294;2023-02-22T10:39:41;6.50;99.90
41720;DHT22;27405;53.316;-6.294;2023-02-22T10:42:07;6.50;99.90
41720;DHT22;27405;53.316;-6.294;2023-02-22T10:44:38;6.50;99.90
41720;DHT22;27405;53.316;-6.294;2023-02-22T10:47:12;6.60;99.90
41720;DHT22;27405;53.316;-6.294;2023-02-22T10:49:48;6.60;99.90
41720;DHT22;27405;53.316;-6.294;2023-02-22T10:52:27;6.60;99.90
41720;DHT22;27405;53.316;-6.294;2023-02-22T10:54:56;6.70;99.90
41720;DHT22;27405;53.316;-6.294;2023-02-22T10:57:28;6.70;99.90
41720;DHT22;27405;53.316;-6.294;2023-02-22T10:59:54;6.80;99.90
41720;DHT22;27405;53.316;-6.294;2023-02-22T11:02:32;6.90;99.90
41720;DHT22;27405;53.316;-6.294;2023-02-22T11:05:00;7.00;99.90
41720;DHT22;27405;53.316;-6.294;2023-02-22T11:07:32;7.00;99.90
41720;DHT22;27405;53.316;-6.294;2023-02-22T11:10:07;7.20;99.90
41720;DHT22;27405;53.316;-6.294;2023-02-22T11:12:41;7.30;99.90
41720;DHT22;27405;53.316;-6.294;2023-02-22T11:15:25;7.40;99.90
41720;DHT22;27405;53.316;-6.294;2023-02-22T11:17:54;7.50;99.90
41720;DHT22;27405;53.316;-6.294;2023-02-22T11:20:36;7.50;99.90
41720;DHT22;27405;53.316;-6.294;2023-02-22T11:23:04;7.60;99.90
41720;DHT22;27405;53.316;-6.294;2023-02-22T11:25:33;7.60;99.90
41720;DHT22;27405;53.316;-6.294;2023-02-22T11:28:18;7.70;99.90
41720;DHT22;27405;53.316;-6.294;2023-02-22T11:30:49;7.70;99.90
41720;DHT22;27405;53.316;-6.294;2023-02-22T11:35:59;7.70;99.90
41720;DHT22;27405;53.316;-6.294;2023-02-22T11:38:27;7.80;99.90
41720;DHT22;27405;53.316;-6.294;2023-02-22T11:43:30;7.90;99.90
41720;DHT22;27405;53.316;-6.294;2023-02-22T11:49:04;8.00;99.90
41720;DHT22;27405;53.316;-6.294;2023-02-22T12:00:25;8.20;99.90
41720;DHT22;27405;53.316;-6.294;2023-02-22T12:21:59;8.50;99.90
41720;DHT22;27405;53.316;-6.294;2023-02-22T12:24:37;8.50;99.90
41720;DHT22;27405;53.316;-6.294;2023-02-22T12:27:26;8.60;99.90
41720;DHT22;27405;53.316;-6.294;2023-02-22T12:30:26;8.60;99.90
41720;DHT22;27405;53.316;-6.294;2023-02-22T12:32:57;8.60;99.90
41720;DHT22;27405;53.316;-6.294;2023-02-22T12:35:29;8.70;99.90
41720;DHT22;27405;53.316;-6.294;2023-02-22T12:38:12;8.70;99.90
41720;DHT22;27405;53.316;-6.294;2023-02-22T12:46:07;8.80;99.90
41720;DHT22;27405;53.316;-6.294;2023-02-22T12:59:34;9.20;99.90
41720;DHT22;27405;53.316;-6.294;2023-02-22T13:02:19;9.30;99.90
41720;DHT22;27405;53.316;-6.294;2023-02-22T13:04:47;9.40;99.90
41720;DHT22;27405;53.316;-6.294;2023-02-22T13:07:30;9.40;99.90
41720;DHT22;27405;53.316;-6.294;2023-02-22T13:12:58;9.50;99.90
41720;DHT22;27405;53.316;-6.294;2023-02-22T13:15:31;9.50;99.90
41720;DHT22;27405;53.316;-6.294;2023-02-22T13:20:58;9.40;99.90
41720;DHT22;27405;53.316;-6.294;2023-02-22T13:24:07;9.50;99.90
41720;DHT22;27405;53.316;-6.294;2023-02-22T13:26:46;9.50;99.90
41720;DHT22;27405;53.316;-6.294;2023-02-22T13:32:10;9.60;99.90
41720;DHT22;27405;53.316;-6.294;2023-02-22T13:40:44;9.70;99.90
41720;DHT22;27405;53.316;-6.294;2023-02-22T13:48:57;9.40;99.90
41720;DHT22;27405;53.316;-6.294;2023-02-22T13:54:11;9.30;99.90
41720;DHT22;27405;53.316;-6.294;2023-02-22T13:56:44;9.30;99.90
41720;DHT22;27405;53.316;-6.294;2023-02-22T13:59:40;9.30;99.90
41720;DHT22;27405;53.316;-6.294;2023-02-22T14:02:06;9.40;99.90
41720;DHT22;27405;53.316;-6.294;2023-02-22T14:04:41;9.40;99.90
41720;DHT22;27405;53.316;-6.294;2023-02-22T14:09:56;9.40;99.90
41720;DHT22;27405;53.316;-6.294;2023-02-22T14:17:42;9.50;99.90
41720;DHT22;27405;53.316;-6.294;2023-02-22T14:22:43;9.60;99.90
41720;DHT22;27405;53.316;-6.294;2023-02-22T14:27:57;9.60;99.90
41720;DHT22;27405;53.316;-6.294;2023-02-22T14:30:41;9.60;99.90
41720;DHT22;27405;53.316;-6.294;2023-02-22T14:36:10;9.60;99.90
41720;DHT22;27405;53.316;-6.294;2023-02-22T14:38:36;9.60;99.90
41720;DHT22;27405;53.316;-6.294;2023-02-22T14:41:02;9.60;99.90
41720;DHT22;27405;53.316;-6.294;2023-02-22T14:43:28;9.60;99.90
41720;DHT22;27405;53.316;-6.294;2023-02-22T14:45:55;9.60;99.90
41720;DHT22;27405;53.316;-6.294;2023-02-22T14:48:29;9.50;99.90
41720;DHT22;27405;53.316;-6.294;2023-02-22T14:51:28;9.60;99.90
41720;DHT22;27405;53.316;-6.294;2023-02-22T14:54:08;9.60;99.90
41720;DHT22;27405;53.316;-6.294;2023-02-22T14:59:57;9.60;99.90
41720;DHT22;27405;53.316;-6.294;2023-02-22T15:02:25;9.50;99.90
41720;DHT22;27405;53.316;-6.294;2023-02-22T15:04:54;9.50;99.90
41720;DHT22;27405;53.316;-6.294;2023-02-22T15:07:25;9.60;99.90
41720;DHT22;27405;53.316;-6.294;2023-02-22T15:10:06;9.50;99.90
41720;DHT22;27405;53.316;-6.294;2023-02-22T15:12:38;9.60;99.90
41720;DHT22;27405;53.316;-6.294;2023-02-22T15:15:24;9.60;99.90
41720;DHT22;27405;53.316;-6.294;2023-02-22T15:17:54;9.50;99.90
41720;DHT22;27405;53.316;-6.294;2023-02-22T15:20:21;9.50;99.90
41720;DHT22;27405;53.316;-6.294;2023-02-22T15:22:48;9.50;99.90
41720;DHT22;27405;53.316;-6.294;2023-02-22T15:25:14;9.50;99.90
41720;DHT22;27405;53.316;-6.294;2023-02-22T15:27:44;9.60;99.90
41720;DHT22;27405;53.316;-6.294;2023-02-22T15:30:25;9.60;99.90
41720;DHT22;27405;53.316;-6.294;2023-02-22T15:32:52;9.60;99.90
41720;DHT22;27405;53.316;-6.294;2023-02-22T15:35:26;9.50;99.90
41720;DHT22;27405;53.316;-6.294;2023-02-22T15:38:16;9.50;99.90
41720;DHT22;27405;53.316;-6.294;2023-02-22T15:40:42;9.40;99.90
41720;DHT22;27405;53.316;-6.294;2023-02-22T15:43:21;9.40;99.90
41720;DHT22;27405;53.316;-6.294;2023-02-22T15:45:49;9.40;99.90
41720;DHT22;27405;53.316;-6.294;2023-02-22T15:48:15;9.50;99.90
41720;DHT22;27405;53.316;-6.294;2023-02-22T15:51:01;9.60;99.90
41720;DHT22;27405;53.316;-6.294;2023-02-22T15:53:48;9.80;99.90
41720;DHT22;27405;53.316;-6.294;2023-02-22T15:56:18;9.90;99.90
41720;DHT22;27405;53.316;-6.294;2023-02-22T15:58:48;10.00;99.90
41720;DHT22;27405;53.316;-6.294;2023-02-22T16:01:16;10.00;99.80
41720;DHT22;27405;53.316;-6.294;2023-02-22T16:03:53;10.00;99.40
41720;DHT22;27405;53.316;-6.294;2023-02-22T16:09:13;10.10;99.40
41720;DHT22;27405;53.316;-6.294;2023-02-22T16:11:44;10.20;99.30
41720;DHT22;27405;53.316;-6.294;2023-02-22T16:14:29;10.30;99.30
41720;DHT22;27405;53.316;-6.294;2023-02-22T16:22:44;10.10;98.10
41720;DHT22;27405;53.316;-6.294;2023-02-22T16:27:58;9.60;98.30
41720;DHT22;27405;53.316;-6.294;2023-02-22T16:30:36;9.40;98.70
41720;DHT22;27405;53.316;-6.294;2023-02-22T16:33:07;9.10;99.10
41720;DHT22;27405;53.316;-6.294;2023-02-22T16:35:41;8.90;99.50
41720;DHT22;27405;53.316;-6.294;2023-02-22T16:38:16;8.70;99.90
41720;DHT22;27405;53.316;-6.294;2023-02-22T16:41:00;8.60;99.90
41720;DHT22;27405;53.316;-6.294;2023-02-22T16:43:30;8.50;99.90
41720;DHT22;27405;53.316;-6.294;2023-02-22T16:45:58;8.60;99.90
41720;DHT22;27405;53.316;-6.294;2023-02-22T16:48:27;8.60;99.90
41720;DHT22;27405;53.316;-6.294;2023-02-22T16:51:25;8.60;99.90
41720;DHT22;27405;53.316;-6.294;2023-02-22T16:53:53;8.70;99.90
41720;DHT22;27405;53.316;-6.294;2023-02-22T16:56:23;8.90;99.90
41720;DHT22;27405;53.316;-6.294;2023-02-22T16:58:50;8.90;99.90
41720;DHT22;27405;53.316;-6.294;2023-02-22T17:01:18;8.90;99.90
41720;DHT22;27405;53.316;-6.294;2023-02-22T17:03:44;8.80;99.90
41720;DHT22;27405;53.316;-6.294;2023-02-22T17:06:10;8.70;99.90
41720;DHT22;27405;53.316;-6.294;2023-02-22T17:08:40;8.70;99.90
41720;DHT22;27405;53.316;-6.294;2023-02-22T17:11:06;8.80;99.90
41720;DHT22;27405;53.316;-6.294;2023-02-22T17:13:33;8.80;99.90
41720;DHT22;27405;53.316;-6.294;2023-02-22T17:16:00;8.80;99.90
41720;DHT22;27405;53.316;-6.294;2023-02-22T17:18:26;8.70;99.90
41720;DHT22;27405;53.316;-6.294;2023-02-22T17:20:54;8.60;99.90
41720;DHT22;27405;53.316;-6.294;2023-02-22T17:23:21;8.50;99.90
41720;DHT22;27405;53.316;-6.294;2023-02-22T17:25:51;8.50;99.90
41720;DHT22;27405;53.316;-6.294;2023-02-22T17:28:18;8.50;99.90
41720;DHT22;27405;53.316;-6.294;2023-02-22T17:30:44;8.50;99.90
41720;DHT22;27405;53.316;-6.294;2023-02-22T17:33:15;8.50;99.90
41720;DHT22;27405;53.316;-6.294;2023-02-22T17:35:41;8.40;99.90
41720;DHT22;27405;53.316;-6.294;2023-02-22T17:38:08;8.40;99.90
41720;DHT22;27405;53.316;-6.294;2023-02-22T17:40:38;8.30;99.90
41720;DHT22;27405;53.316;-6.294;2023-02-22T17:43:05;8.30;99.90
41720;DHT22;27405;53.316;-6.294;2023-02-22T17:45:33;8.20;99.90
41720;DHT22;27405;53.316;-6.294;2023-02-22T17:48:01;8.20;99.90
41720;DHT22;27405;53.316;-6.294;2023-02-22T17:50:27;8.20;99.90
41720;DHT22;27405;53.316;-6.294;2023-02-22T17:52:55;8.20;99.90
41720;DHT22;27405;53.316;-6.294;2023-02-22T17:55:21;8.20;99.90
41720;DHT22;27405;53.316;-6.294;2023-02-22T17:57:52;8.20;99.90
41720;DHT22;27405;53.316;-6.294;2023-02-22T18:00:24;8.20;99.90
41720;DHT22;27405;53.316;-6.294;2023-02-22T18:02:58;8.20;99.90
41720;DHT22;27405;53.316;-6.294;2023-02-22T18:05:25;8.00;99.90
41720;DHT22;27405;53.316;-6.294;2023-02-22T18:07:51;7.80;99.90
41720;DHT22;27405;53.316;-6.294;2023-02-22T18:10:17;7.50;99.90
41720;DHT22;27405;53.316;-6.294;2023-02-22T18:12:45;7.30;99.90
41720;DHT22;27405;53.316;-6.294;2023-02-22T18:15:14;7.10;99.90
41720;DHT22;27405;53.316;-6.294;2023-02-22T18:17:45;6.90;99.90
41720;DHT22;27405;53.316;-6.294;2023-02-22T18:20:12;6.80;99.90
41720;DHT22;27405;53.316;-6.294;2023-02-22T18:22:41;6.60;99.90
41720;DHT22;27405;53.316;-6.294;2023-02-22T18:25:13;6.50;99.90
41720;DHT22;27405;53.316;-6.294;2023-02-22T18:27:40;6.50;99.90